createdAt,value
2019-03-18T00:00:26.343Z,100130.51
2019-03-18T00:02:54.810Z,100137.64
2019-03-18T00:05:23.295Z,100132.11
2019-03-18T00:07:51.760Z,100128.56
2019-03-18T00:10:20.206Z,100143.72
2019-03-18T00:12:48.691Z,100144.45
2019-03-18T00:15:17.200Z,100149.98
2019-03-18T00:17:45.662Z,100153.22
2019-03-18T00:20:14.799Z,100146.28
2019-03-18T00:22:43.416Z,100148.59
2019-03-18T00:25:18.901Z,100148.39
2019-03-18T00:27:47.435Z,100151.94
2019-03-18T00:30:19.836Z,100141.22
2019-03-18T00:32:48.332Z,100146.17
2019-03-18T00:35:17.052Z,100146.72
2019-03-18T00:37:45.516Z,100142.63
2019-03-18T00:40:16.431Z,100138.89
2019-03-18T00:42:44.968Z,100144.27
2019-03-18T00:45:15.603Z,100151.55
2019-03-18T00:47:44.336Z,100142.47
2019-03-18T00:50:16.138Z,100144.27
2019-03-18T00:52:44.625Z,100136.23
2019-03-18T00:55:13.301Z,100144.65
2019-03-18T00:57:41.736Z,100149.67
2019-03-18T01:00:17.697Z,100147.73
2019-03-18T01:02:49.112Z,100155.24
2019-03-18T01:05:16.307Z,100162.17
2019-03-18T01:07:44.874Z,100156.33
2019-03-18T01:10:14.538Z,100152.75
2019-03-18T01:12:43.008Z,100165.02
2019-03-18T01:15:12.251Z,100154.12
2019-03-18T01:17:40.707Z,100146.09
2019-03-18T01:20:11.265Z,100155.83
2019-03-18T01:22:39.774Z,100140.12
2019-03-18T01:25:12.070Z,100143.64
2019-03-18T01:27:40.750Z,100146.98
2019-03-18T01:30:14.592Z,100147.34
2019-03-18T01:32:43.033Z,100142.50
2019-03-18T01:35:12.229Z,100141.26
2019-03-18T01:37:40.652Z,100139.50
2019-03-18T01:40:11.040Z,100144.69
2019-03-18T01:42:39.602Z,100148.63
2019-03-18T01:45:09.226Z,100143.83
2019-03-18T01:47:37.725Z,100146.98
2019-03-18T01:50:10.733Z,100141.65
2019-03-18T01:52:39.235Z,100149.48
2019-03-18T01:55:07.908Z,100153.03
2019-03-18T01:57:36.337Z,100177.45
2019-03-18T02:00:10.027Z,100162.88
2019-03-18T02:02:38.460Z,100175.23
2019-03-18T02:05:08.553Z,100180.41
2019-03-18T02:07:36.985Z,100168.45
2019-03-18T02:10:13.455Z,100185.72
2019-03-18T02:12:43.419Z,100173.79
2019-03-18T02:15:14.218Z,100176.41
2019-03-18T02:17:42.957Z,100177.10
2019-03-18T02:20:19.427Z,100178.47
2019-03-18T02:22:46.433Z,100164.52
2019-03-18T02:25:14.856Z,100169.63
2019-03-18T02:27:43.304Z,100174.22
2019-03-18T02:30:13.870Z,100173.52
2019-03-18T02:32:42.347Z,100169.73
2019-03-18T02:35:10.857Z,100162.95
2019-03-18T02:37:39.401Z,100166.48
2019-03-18T02:40:10.171Z,100173.03
2019-03-18T02:42:39.365Z,100174.08
2019-03-18T02:45:09.661Z,100178.88
2019-03-18T02:47:38.119Z,100181.57
2019-03-18T02:50:07.688Z,100176.78
2019-03-18T02:52:36.133Z,100171.48
2019-03-18T02:55:05.928Z,100178.96
2019-03-18T02:57:34.392Z,100181.77
2019-03-18T03:00:02.903Z,100189.41
2019-03-18T03:02:31.339Z,100178.68
2019-03-18T03:04:59.769Z,100188.50
2019-03-18T03:07:29.389Z,100187.97
2019-03-18T03:09:57.832Z,100191.55
2019-03-18T03:12:26.269Z,100204.53
2019-03-18T03:14:54.741Z,100194.55
2019-03-18T03:17:23.692Z,100194.28
2019-03-18T03:19:52.092Z,100200.17
2019-03-18T03:22:20.522Z,100181.89
2019-03-18T03:24:48.982Z,100189.38
2019-03-18T03:27:17.485Z,100212.03
2019-03-18T03:29:45.933Z,100208.09
2019-03-18T03:32:14.380Z,100215.03
2019-03-18T03:34:42.907Z,100214.09
2019-03-18T03:37:11.372Z,100227.62
2019-03-18T03:39:39.802Z,100230.50
2019-03-18T03:42:08.311Z,100242.23
2019-03-18T03:44:36.776Z,100236.19
2019-03-18T03:47:05.219Z,100228.52
2019-03-18T03:49:33.656Z,100235.91
2019-03-18T03:52:02.097Z,100241.17
2019-03-18T03:54:30.519Z,100243.73
2019-03-18T03:56:59.405Z,100241.94
2019-03-18T03:59:27.906Z,100251.59
2019-03-18T04:01:56.633Z,100257.13
2019-03-18T04:04:25.087Z,100250.13
2019-03-18T04:06:53.748Z,100240.31
2019-03-18T04:09:22.180Z,100257.54
2019-03-18T04:11:50.701Z,100263.07
2019-03-18T04:14:19.190Z,100267.16
2019-03-18T04:17:00.613Z,100271.45
2019-03-18T04:19:17.954Z,100268.73
2019-03-18T04:21:50.392Z,100268.56
2019-03-18T04:24:16.904Z,100262.88
2019-03-18T04:26:45.334Z,100264.86
2019-03-18T04:29:13.789Z,100275.77
2019-03-18T04:31:42.212Z,100280.46
2019-03-18T04:34:10.652Z,100273.33
2019-03-18T04:36:39.097Z,100272.82
2019-03-18T04:39:07.827Z,100286.56
2019-03-18T04:41:36.422Z,100292.22
2019-03-18T04:44:04.821Z,100293.66
2019-03-18T04:46:33.268Z,100289.19
2019-03-18T04:49:02.070Z,100296.29
2019-03-18T04:51:30.501Z,100303.20
2019-03-18T04:53:58.932Z,100310.14
2019-03-18T04:56:27.422Z,100314.93
2019-03-18T04:58:55.840Z,100314.93
2019-03-18T05:01:24.346Z,100318.52
2019-03-18T05:03:52.770Z,100311.19
2019-03-18T05:06:21.228Z,100321.00
2019-03-18T05:08:49.743Z,100331.87
2019-03-18T05:11:18.205Z,100330.09
2019-03-18T05:13:46.746Z,100328.64
2019-03-18T05:16:15.803Z,100333.83
2019-03-18T05:18:44.243Z,100338.81
2019-03-18T05:21:12.684Z,100334.50
2019-03-18T05:23:41.207Z,100337.73
2019-03-18T05:26:09.750Z,100352.31
2019-03-18T05:28:38.170Z,100356.08
2019-03-18T05:31:06.597Z,100353.07
2019-03-18T05:33:35.109Z,100353.39
2019-03-18T05:36:03.598Z,100356.44
2019-03-18T05:38:32.003Z,100361.42
2019-03-18T05:41:00.831Z,100368.39
2019-03-18T05:43:29.446Z,100377.47
2019-03-18T05:45:57.885Z,100374.98
2019-03-18T05:48:26.321Z,100387.42
2019-03-18T05:50:54.789Z,100389.18
2019-03-18T05:53:23.218Z,100380.50
2019-03-18T05:55:51.653Z,100383.70
2019-03-18T05:58:20.111Z,100389.07
2019-03-18T06:00:48.610Z,100388.88
2019-03-18T06:03:17.037Z,100390.11
2019-03-18T06:05:45.485Z,100378.31
2019-03-18T06:08:13.919Z,100388.70
2019-03-18T06:10:42.435Z,100403.84
2019-03-18T06:13:14.018Z,100389.80
2019-03-18T06:15:42.423Z,100406.37
2019-03-18T06:18:10.928Z,100397.96
2019-03-18T06:20:39.359Z,100400.35
2019-03-18T06:23:07.804Z,100398.29
2019-03-18T06:25:36.318Z,100390.42
2019-03-18T06:28:04.790Z,100404.31
2019-03-18T06:30:33.233Z,100398.91
2019-03-18T06:33:01.764Z,100406.23
2019-03-18T06:35:30.189Z,100398.36
2019-03-18T06:37:58.643Z,100409.55
2019-03-18T06:40:27.112Z,100419.86
2019-03-18T06:42:55.563Z,100419.34
2019-03-18T06:45:24.009Z,100426.45
2019-03-18T06:48:04.079Z,100436.25
2019-03-18T06:50:22.631Z,100435.83
2019-03-18T06:52:51.075Z,100437.27
2019-03-18T06:55:19.527Z,100442.11
2019-03-18T06:57:48.922Z,100440.34
2019-03-18T07:00:17.628Z,100440.47
2019-03-18T07:02:46.064Z,100453.12
2019-03-18T07:05:14.743Z,100463.23
2019-03-18T07:07:43.190Z,100450.94
2019-03-18T07:10:13.062Z,100461.72
2019-03-18T07:12:41.493Z,100476.31
2019-03-18T07:15:10.571Z,100476.47
2019-03-18T07:17:39.020Z,100466.28
2019-03-18T07:20:12.540Z,100472.29
2019-03-18T07:22:41.284Z,100472.29
2019-03-18T07:25:09.797Z,100488.92
2019-03-18T07:27:38.661Z,100488.92
2019-03-18T07:30:11.928Z,100497.52
2019-03-18T07:32:40.358Z,100495.21
2019-03-18T07:35:08.943Z,100508.53
2019-03-18T07:37:37.401Z,100502.98
2019-03-18T07:40:11.444Z,100502.98
2019-03-18T07:42:39.880Z,100507.75
2019-03-18T07:45:11.936Z,100509.59
2019-03-18T07:47:40.400Z,100507.17
2019-03-18T07:50:13.243Z,100519.51
2019-03-18T07:52:41.730Z,100509.04
2019-03-18T07:55:10.795Z,100523.45
2019-03-18T07:57:39.217Z,100529.70
2019-03-18T08:00:12.598Z,100523.48
2019-03-18T08:02:41.069Z,100523.48
2019-03-18T08:05:10.342Z,100540.08
2019-03-18T08:07:38.801Z,100538.13
2019-03-18T08:10:14.197Z,100525.83
2019-03-18T08:12:42.744Z,100531.07
2019-03-18T08:15:12.304Z,100528.58
2019-03-18T08:17:40.818Z,100528.58
2019-03-18T08:20:12.890Z,100533.48
2019-03-18T08:22:41.323Z,100539.59
2019-03-18T08:25:10.514Z,100549.80
2019-03-18T08:27:38.979Z,100548.64
2019-03-18T08:30:15.621Z,100555.55
2019-03-18T08:32:44.112Z,100551.79
2019-03-18T08:35:12.642Z,100564.51
2019-03-18T08:37:41.142Z,100579.48
2019-03-18T08:40:11.548Z,100569.76
2019-03-18T08:42:39.993Z,100568.25
2019-03-18T08:45:12.741Z,100577.02
2019-03-18T08:47:41.190Z,100591.78
2019-03-18T08:50:12.459Z,100585.25
2019-03-18T08:52:41.300Z,100588.66
2019-03-18T08:55:11.369Z,100601.27
2019-03-18T08:57:39.857Z,100586.81
2019-03-18T09:00:16.221Z,100597.56
2019-03-18T09:02:44.676Z,100602.02
2019-03-18T09:05:13.397Z,100605.15
2019-03-18T09:07:42.003Z,100609.38
2019-03-18T09:10:13.498Z,100597.59
2019-03-18T09:12:42.078Z,100619.58
2019-03-18T09:15:11.579Z,100618.48
2019-03-18T09:17:40.192Z,100608.40
2019-03-18T09:20:17.110Z,100612.49
2019-03-18T09:22:45.645Z,100570.05
2019-03-18T09:25:14.423Z,100614.86
2019-03-18T09:27:42.851Z,100622.89
2019-03-18T09:30:14.627Z,100633.64
2019-03-18T09:32:43.096Z,100625.91
2019-03-18T09:35:11.894Z,100625.92
2019-03-18T09:37:40.355Z,100634.83
2019-03-18T09:40:13.034Z,100627.42
2019-03-18T09:42:41.482Z,100632.12
2019-03-18T09:45:12.106Z,100622.88
2019-03-18T09:47:40.553Z,100619.67
2019-03-18T09:50:10.466Z,100628.39
2019-03-18T09:52:39.225Z,100623.87
2019-03-18T09:55:08.713Z,100639.48
2019-03-18T09:57:37.313Z,100633.33
2019-03-18T10:00:08.809Z,100645.82
2019-03-18T10:02:37.278Z,100647.98
2019-03-18T10:05:07.059Z,100625.31
2019-03-18T10:07:35.508Z,100638.12
2019-03-18T10:10:11.863Z,100640.03
2019-03-18T10:12:40.443Z,100630.85
2019-03-18T10:15:17.489Z,100639.90
2019-03-18T10:17:45.962Z,100639.34
2019-03-18T10:20:14.539Z,100657.81
2019-03-18T10:22:43.351Z,100652.92
2019-03-18T10:25:11.805Z,100640.89
2019-03-18T10:27:40.281Z,100651.38
2019-03-18T10:30:10.939Z,100635.71
2019-03-18T10:32:39.417Z,100653.64
2019-03-18T10:35:08.509Z,100657.16
2019-03-18T10:37:36.955Z,100679.93
2019-03-18T10:40:13.466Z,100695.52
2019-03-18T10:42:41.972Z,100799.84
2019-03-18T10:45:12.391Z,100794.77
2019-03-18T10:47:40.858Z,100793.23
2019-03-18T10:50:14.500Z,100769.56
2019-03-18T10:52:43.198Z,100767.62
2019-03-18T10:55:11.721Z,100757.99
2019-03-18T10:57:40.212Z,100764.77
2019-03-18T11:00:14.011Z,100757.08
2019-03-18T11:02:44.834Z,100753.81
2019-03-18T11:05:13.284Z,100756.31
2019-03-18T11:07:41.730Z,100756.75
2019-03-18T11:10:12.805Z,100767.45
2019-03-18T11:12:41.361Z,100767.45
2019-03-18T11:15:12.437Z,100775.06
2019-03-18T11:17:40.985Z,100763.34
2019-03-18T11:20:12.151Z,100774.20
2019-03-18T11:22:40.578Z,100776.83
2019-03-18T11:25:10.968Z,100783.52
2019-03-18T11:27:39.450Z,100762.83
2019-03-18T11:30:16.365Z,100771.86
2019-03-18T11:32:44.888Z,100779.53
2019-03-18T11:35:13.382Z,100782.02
2019-03-18T11:37:41.865Z,100768.55
2019-03-18T11:40:13.266Z,100768.55
2019-03-18T11:42:41.876Z,100777.19
2019-03-18T11:45:14.440Z,100787.16
2019-03-18T11:47:43.019Z,100786.33
2019-03-18T11:50:15.581Z,100789.25
2019-03-18T11:52:44.052Z,100785.97
2019-03-18T11:55:15.545Z,100789.66
2019-03-18T11:57:43.998Z,100781.31
2019-03-18T12:00:15.391Z,100787.15
2019-03-18T12:02:43.850Z,100786.53
2019-03-18T12:05:14.920Z,100783.05
2019-03-18T12:07:43.638Z,100781.05
2019-03-18T12:10:14.600Z,100778.94
2019-03-18T12:12:43.056Z,100782.18
2019-03-18T12:15:14.341Z,100789.03
2019-03-18T12:17:42.800Z,100792.43
2019-03-18T12:20:24.483Z,100777.59
2019-03-18T12:22:45.050Z,100776.31
2019-03-18T12:25:13.727Z,100779.16
2019-03-18T12:27:42.179Z,100758.11
2019-03-18T12:30:16.613Z,100785.95
2019-03-18T12:32:45.056Z,100775.84
2019-03-18T12:35:13.764Z,100780.39
2019-03-18T12:37:42.223Z,100784.80
2019-03-18T12:40:13.576Z,100779.74
2019-03-18T12:42:42.219Z,100781.36
2019-03-18T12:45:14.632Z,100767.94
2019-03-18T12:47:43.088Z,100752.23
2019-03-18T12:50:38.513Z,100768.14
2019-03-18T12:52:53.232Z,100774.77
2019-03-18T12:55:21.698Z,100772.30
2019-03-18T12:57:50.196Z,100792.17
2019-03-18T13:00:27.718Z,100826.86
2019-03-18T13:02:56.417Z,100835.50
2019-03-18T13:05:25.058Z,100826.31
2019-03-18T13:07:53.549Z,100851.38
2019-03-18T13:10:22.347Z,100854.56
2019-03-18T13:12:51.035Z,100847.11
2019-03-18T13:15:20.627Z,100849.59
2019-03-18T13:17:49.099Z,100850.26
2019-03-18T13:20:19.766Z,100849.13
2019-03-18T13:22:48.236Z,100856.84
2019-03-18T13:25:16.731Z,100852.19
2019-03-18T13:27:45.241Z,100858.18
2019-03-18T13:30:18.012Z,100861.23
2019-03-18T13:32:46.553Z,100858.05
2019-03-18T13:35:15.269Z,100856.64
2019-03-18T13:37:44.157Z,100853.72
2019-03-18T13:40:14.436Z,100846.09
2019-03-18T13:42:43.030Z,100847.16
2019-03-18T13:45:18.453Z,100851.50
2019-03-18T13:47:46.974Z,100843.51
2019-03-18T13:50:17.829Z,100834.70
2019-03-18T13:52:46.269Z,100857.90
2019-03-18T13:55:14.791Z,100854.84
2019-03-18T13:57:43.316Z,100854.17
2019-03-18T14:00:14.391Z,100855.58
2019-03-18T14:02:43.311Z,100846.41
2019-03-18T14:05:12.709Z,100855.94
2019-03-18T14:07:41.237Z,100862.45
2019-03-18T14:10:18.025Z,100854.12
2019-03-18T14:12:46.760Z,100852.23
2019-03-18T14:15:22.407Z,100855.84
2019-03-18T14:17:51.151Z,100856.41
2019-03-18T14:20:25.018Z,100854.86
2019-03-18T14:22:53.637Z,100863.83
2019-03-18T14:25:22.102Z,100856.20
2019-03-18T14:27:50.562Z,100866.45
2019-03-18T14:30:20.072Z,100862.23
2019-03-18T14:32:48.593Z,100865.45
2019-03-18T14:35:21.470Z,100858.28
2019-03-18T14:37:47.527Z,100859.20
2019-03-18T14:40:18.136Z,100851.95
2019-03-18T14:42:46.579Z,100851.67
2019-03-18T14:45:19.358Z,100867.52
2019-03-18T14:47:47.862Z,100862.77
2019-03-18T14:50:17.965Z,100869.25
2019-03-18T14:52:46.421Z,100880.47
2019-03-18T14:55:16.029Z,100891.03
2019-03-18T14:57:44.442Z,100893.78
2019-03-18T15:00:15.928Z,100908.84
2019-03-18T15:02:44.368Z,100979.87
2019-03-18T15:05:14.659Z,100989.05
2019-03-18T15:07:43.317Z,100976.20
2019-03-18T15:10:23.103Z,100974.33
2019-03-18T15:12:51.546Z,100980.78
2019-03-18T15:15:20.148Z,100970.62
2019-03-18T15:17:48.596Z,100964.89
2019-03-18T15:20:19.813Z,100966.49
2019-03-18T15:22:48.683Z,100986.45
2019-03-18T15:25:25.489Z,100982.50
2019-03-18T15:27:54.052Z,100982.83
2019-03-18T15:30:22.487Z,100967.58
2019-03-18T15:32:50.995Z,100970.55
2019-03-18T15:35:19.671Z,100964.15
2019-03-18T15:37:51.293Z,100962.58
2019-03-18T15:40:22.048Z,100975.59
2019-03-18T15:42:50.488Z,100983.17
2019-03-18T15:45:20.202Z,100985.86
2019-03-18T15:47:49.441Z,100994.52
2019-03-18T15:50:19.146Z,100999.02
2019-03-18T15:52:47.564Z,100991.86
2019-03-18T15:55:16.102Z,100997.78
2019-03-18T15:57:44.717Z,101007.50
2019-03-18T16:00:23.159Z,101011.86
2019-03-18T16:02:52.145Z,101033.31
2019-03-18T16:05:20.839Z,101040.19
2019-03-18T16:07:49.359Z,101038.80
2019-03-18T16:10:18.753Z,101047.95
2019-03-18T16:12:47.417Z,101051.91
2019-03-18T16:15:16.826Z,101049.06
2019-03-18T16:17:45.363Z,101054.77
2019-03-18T16:20:29.828Z,101066.59
2019-03-18T16:22:58.284Z,101060.16
2019-03-18T16:25:26.779Z,101059.08
2019-03-18T16:27:55.270Z,101073.52
2019-03-18T16:30:23.700Z,101076.23
2019-03-18T16:32:52.335Z,101060.50
2019-03-18T16:35:20.935Z,101067.45
2019-03-18T16:37:49.364Z,101061.94
2019-03-18T16:40:21.930Z,101074.80
2019-03-18T16:42:50.345Z,101080.87
2019-03-18T16:45:19.719Z,101066.23
2019-03-18T16:47:48.881Z,101078.34
2019-03-18T16:50:31.300Z,101084.43
2019-03-18T16:52:59.884Z,101085.50
2019-03-18T16:55:28.319Z,101094.05
2019-03-18T16:57:56.752Z,101090.47
2019-03-18T17:00:26.244Z,101094.22
2019-03-18T17:02:54.751Z,101094.22
2019-03-18T17:05:23.218Z,101089.22
2019-03-18T17:07:54.024Z,101110.11
2019-03-18T17:10:22.225Z,101119.72
2019-03-18T17:12:51.227Z,101112.95
2019-03-18T17:15:20.727Z,101118.98
2019-03-18T17:17:49.188Z,101113.80
2019-03-18T17:20:18.297Z,101111.47
2019-03-18T17:22:49.750Z,101133.05
2019-03-18T17:25:19.263Z,101129.95
2019-03-18T17:27:47.751Z,101142.61
2019-03-18T17:30:20.090Z,101152.06
2019-03-18T17:32:48.621Z,101152.06
2019-03-18T17:35:17.072Z,101154.00
2019-03-18T17:37:45.578Z,101162.20
2019-03-18T17:40:18.179Z,101165.94
2019-03-18T17:42:46.638Z,101131.56
2019-03-18T17:45:16.295Z,101162.13
2019-03-18T17:47:44.799Z,101171.20
2019-03-18T17:50:24.772Z,101170.50
2019-03-18T17:53:02.125Z,101183.84
2019-03-18T17:55:23.474Z,101179.56
2019-03-18T17:57:51.860Z,101185.05
2019-03-18T18:00:24.727Z,101184.30
2019-03-18T18:02:53.265Z,101188.92
2019-03-18T18:05:21.732Z,101188.00
2019-03-18T18:07:50.160Z,101192.97
2019-03-18T18:10:18.613Z,101202.58
2019-03-18T18:12:47.097Z,101210.58
2019-03-18T18:15:15.554Z,101214.10
2019-03-18T18:17:43.989Z,101218.38
2019-03-18T18:20:13.870Z,101224.98
2019-03-18T18:22:42.305Z,101233.03
2019-03-18T18:25:11.877Z,101238.73
2019-03-18T18:27:40.328Z,101231.46
2019-03-18T18:30:11.198Z,101239.68
2019-03-18T18:32:39.649Z,101243.42
2019-03-18T18:35:10.508Z,101251.06
2019-03-18T18:37:38.953Z,101255.50
2019-03-18T18:40:10.759Z,101257.25
2019-03-18T18:42:39.295Z,101267.08
2019-03-18T18:45:09.658Z,101259.23
2019-03-18T18:47:38.327Z,101267.55
2019-03-18T18:50:09.474Z,101281.25
2019-03-18T18:52:37.891Z,101280.87
2019-03-18T18:55:11.246Z,101281.91
2019-03-18T18:57:39.759Z,101289.61
2019-03-18T19:00:19.497Z,101294.44
2019-03-18T19:02:47.994Z,101282.62
2019-03-18T19:05:19.609Z,101298.87
2019-03-18T19:07:48.352Z,101299.45
2019-03-18T19:10:20.713Z,101300.73
2019-03-18T19:12:49.393Z,101308.11
2019-03-18T19:15:26.516Z,101308.22
2019-03-18T19:17:54.970Z,101308.45
2019-03-18T19:20:23.469Z,101315.11
2019-03-18T19:22:51.950Z,101315.34
2019-03-18T19:25:20.372Z,101312.68
2019-03-18T19:27:48.818Z,101321.27
2019-03-18T19:30:19.278Z,101319.17
2019-03-18T19:32:47.945Z,101319.17
2019-03-18T19:35:20.091Z,101334.50
2019-03-18T19:37:48.565Z,101334.50
2019-03-18T19:40:23.863Z,101342.66
2019-03-18T19:42:52.405Z,101345.48
2019-03-18T19:45:20.854Z,101342.75
2019-03-18T19:47:49.289Z,101347.88
2019-03-18T19:50:25.675Z,101352.98
2019-03-18T19:52:54.193Z,101352.98
2019-03-18T19:55:22.695Z,101353.45
2019-03-18T19:57:51.257Z,101352.84
2019-03-18T20:00:23.807Z,101351.38
2019-03-18T20:02:52.323Z,101362.02
2019-03-18T20:05:20.777Z,101376.83
2019-03-18T20:07:49.222Z,101379.13
2019-03-18T20:10:18.792Z,101376.45
2019-03-18T20:12:47.251Z,101384.92
2019-03-18T20:15:16.736Z,101395.78
2019-03-18T20:17:45.193Z,101403.08
2019-03-18T20:20:19.301Z,101409.13
2019-03-18T20:22:47.742Z,101403.45
2019-03-18T20:25:16.270Z,101408.66
2019-03-18T20:27:44.718Z,101406.11
2019-03-18T20:30:18.555Z,101412.41
2019-03-18T20:32:47.188Z,101419.14
2019-03-18T20:35:21.748Z,101429.37
2019-03-18T20:37:51.771Z,101431.98
2019-03-18T20:40:21.000Z,101443.17
2019-03-18T20:42:49.539Z,101449.75
2019-03-18T20:45:19.309Z,101448.66
2019-03-18T20:47:48.088Z,101452.77
2019-03-18T20:50:20.350Z,101454.58
2019-03-18T20:52:48.772Z,101460.10
2019-03-18T20:55:17.482Z,101461.02
2019-03-18T20:57:46.144Z,101451.63
2019-03-18T21:00:18.714Z,101451.63
2019-03-18T21:02:47.323Z,101455.34
2019-03-18T21:05:16.199Z,101465.36
2019-03-18T21:07:44.945Z,101464.53
2019-03-18T21:10:20.563Z,101458.36
2019-03-18T21:12:49.607Z,101464.36
2019-03-18T21:15:18.761Z,101460.02
2019-03-18T21:17:47.554Z,101467.64
2019-03-18T21:20:24.411Z,101472.40
2019-03-18T21:22:52.890Z,101479.88
2019-03-18T21:25:21.311Z,101478.92
2019-03-18T21:27:49.896Z,101481.03
2019-03-18T21:30:19.780Z,101482.58
2019-03-18T21:32:48.230Z,101480.03
2019-03-18T21:35:16.846Z,101489.92
2019-03-18T21:37:45.269Z,101488.83
2019-03-18T21:40:16.022Z,101485.66
2019-03-18T21:42:44.502Z,101489.34
2019-03-18T21:45:18.009Z,101496.62
2019-03-18T21:47:46.455Z,101500.84
2019-03-18T21:50:15.839Z,101499.21
2019-03-18T21:52:44.446Z,101505.78
2019-03-18T21:55:13.457Z,101502.95
2019-03-18T21:57:42.169Z,101509.00
2019-03-18T22:00:18.269Z,101503.01
2019-03-18T22:02:46.771Z,101506.45
2019-03-18T22:05:15.835Z,101506.45
2019-03-18T22:07:44.280Z,101513.73
2019-03-18T22:10:14.356Z,101516.27
2019-03-18T22:12:42.866Z,101516.86
2019-03-18T22:15:15.245Z,101520.34
2019-03-18T22:17:43.795Z,101493.50
2019-03-18T22:20:18.835Z,101516.59
2019-03-18T22:22:47.312Z,101511.47
2019-03-18T22:25:16.407Z,101512.52
2019-03-18T22:27:44.953Z,101517.78
2019-03-18T22:30:18.182Z,101522.03
2019-03-18T22:32:47.186Z,101515.23
2019-03-18T22:35:15.680Z,101519.25
2019-03-18T22:37:44.437Z,101522.98
2019-03-18T22:40:18.938Z,101521.88
2019-03-18T22:42:47.408Z,101535.72
2019-03-18T22:45:19.293Z,101534.08
2019-03-18T22:47:47.750Z,101540.09
2019-03-18T22:50:17.990Z,101537.41
2019-03-18T22:52:46.428Z,101546.03
2019-03-18T22:55:15.804Z,101544.59
2019-03-18T22:57:44.250Z,101555.98
2019-03-18T23:00:21.580Z,101546.54
2019-03-18T23:02:51.244Z,101559.52
2019-03-18T23:05:19.711Z,101555.25
2019-03-18T23:07:48.147Z,101555.11
2019-03-18T23:10:16.696Z,101558.14
2019-03-18T23:12:45.194Z,101553.88
2019-03-18T23:15:13.941Z,101556.50
2019-03-18T23:17:42.791Z,101550.67
2019-03-18T23:20:11.391Z,101553.88
2019-03-18T23:22:39.858Z,101559.33
2019-03-18T23:25:08.494Z,101558.69
2019-03-18T23:27:37.049Z,101566.86
2019-03-18T23:30:10.773Z,101567.77
2019-03-18T23:32:39.229Z,101561.55
2019-03-18T23:35:08.105Z,101566.33
2019-03-18T23:37:36.532Z,101560.24
2019-03-18T23:40:14.851Z,101566.60
2019-03-18T23:42:43.271Z,101561.05
2019-03-18T23:45:12.997Z,101554.30
2019-03-18T23:47:41.424Z,101557.45
2019-03-18T23:50:15.318Z,101572.59
2019-03-18T23:52:43.795Z,101575.78
2019-03-18T23:55:18.841Z,101587.38
2019-03-18T23:57:42.533Z,101581.52
